createdAt,value
2022-08-08T00:01:00.082Z,5.57
2022-08-08T00:03:49.096Z,5.15
2022-08-08T00:06:49.501Z,5.10
2022-08-08T00:09:44.620Z,5.00
2022-08-08T00:12:41.061Z,5.00
2022-08-08T00:15:57.625Z,3.95
2022-08-08T00:18:55.626Z,4.55
2022-08-08T00:21:51.137Z,4.30
2022-08-08T00:24:45.635Z,4.05
2022-08-08T00:27:37.106Z,4.13
2022-08-08T00:30:31.582Z,4.00
2022-08-08T00:33:24.120Z,3.92
2022-08-08T00:36:25.613Z,4.20
2022-08-08T00:41:06.061Z,3.63
2022-08-08T00:42:51.805Z,3.90
2022-08-08T00:46:05.185Z,4.15
2022-08-08T00:49:58.841Z,3.80
2022-08-08T00:52:57.274Z,3.88
2022-08-08T00:56:19.989Z,3.55
2022-08-08T00:59:46.781Z,3.72
2022-08-08T01:04:02.711Z,3.65
2022-08-08T01:07:55.310Z,4.00
2022-08-08T01:11:27.915Z,3.85
2022-08-08T01:15:11.507Z,4.28
2022-08-08T01:18:53.377Z,3.95
2022-08-08T01:22:23.568Z,4.20
2022-08-08T01:25:59.260Z,4.20
2022-08-08T01:29:59.760Z,3.97
2022-08-08T01:33:54.331Z,3.75
2022-08-08T01:37:56.881Z,3.17
2022-08-08T01:40:44.364Z,3.22
2022-08-08T01:43:45.605Z,3.47
2022-08-08T01:46:52.330Z,2.92
2022-08-08T01:49:59.580Z,3.20
2022-08-08T01:55:14.869Z,3.10
2022-08-08T01:56:28.417Z,3.10
2022-08-08T02:00:02.360Z,2.75
2022-08-08T02:03:55.984Z,2.70
2022-08-08T02:06:57.244Z,3.03
2022-08-08T02:10:11.642Z,3.20
2022-08-08T02:13:06.980Z,3.03
2022-08-08T02:16:05.304Z,3.10
2022-08-08T02:19:10.062Z,3.03
2022-08-08T02:22:52.690Z,3.30
2022-08-08T02:25:50.788Z,3.17
2022-08-08T02:28:54.917Z,3.22
2022-08-08T02:32:07.238Z,2.97
2022-08-08T02:35:19.438Z,3.40
2022-08-08T02:39:00.875Z,3.40
2022-08-08T02:42:38.255Z,3.45
2022-08-08T02:45:56.976Z,3.40
2022-08-08T02:49:27.414Z,4.00
2022-08-08T02:52:59.937Z,3.80
2022-08-08T02:56:27.378Z,3.67
2022-08-08T03:00:01.578Z,3.58
2022-08-08T03:05:03.637Z,3.67
2022-08-08T03:07:58.158Z,3.25
2022-08-08T03:11:25.691Z,4.00
2022-08-08T03:15:59.338Z,3.35
2022-08-08T03:18:14.359Z,3.35
2022-08-08T03:21:09.900Z,2.78
2022-08-08T03:24:05.119Z,3.40
2022-08-08T03:26:57.967Z,3.00
2022-08-08T03:29:55.959Z,3.40
2022-08-08T03:33:07.599Z,3.40
2022-08-08T03:36:27.718Z,3.35
2022-08-08T03:39:21.719Z,3.40
2022-08-08T03:42:27.472Z,3.08
2022-08-08T03:46:03.288Z,3.50
2022-08-08T03:49:10.097Z,3.13
2022-08-08T03:51:51.511Z,2.92
2022-08-08T03:55:02.646Z,3.25
2022-08-08T03:58:35.414Z,3.22
2022-08-08T04:01:23.298Z,3.50
2022-08-08T04:04:23.186Z,3.50
2022-08-08T04:07:21.332Z,3.40
2022-08-08T04:10:11.959Z,3.80
2022-08-08T04:13:08.273Z,3.67
2022-08-08T04:16:07.936Z,4.25
2022-08-08T04:19:04.369Z,4.60
2022-08-08T04:22:16.531Z,3.83
2022-08-08T04:25:06.750Z,3.88
2022-08-08T04:28:35.523Z,4.00
2022-08-08T04:31:09.407Z,3.38
2022-08-08T04:33:58.527Z,3.90
2022-08-08T04:36:47.254Z,3.97
2022-08-08T04:40:05.514Z,3.95
2022-08-08T04:42:46.757Z,3.83
2022-08-08T04:45:51.487Z,3.58
2022-08-08T04:48:40.121Z,3.75
2022-08-08T04:51:55.354Z,3.70
2022-08-08T04:54:40.136Z,3.35
2022-08-08T04:57:31.385Z,3.47
2022-08-08T05:00:25.189Z,3.35
2022-08-08T05:03:18.842Z,3.50
2022-08-08T05:06:27.955Z,3.53
2022-08-08T05:09:18.862Z,3.05
2022-08-08T05:12:09.516Z,3.58
2022-08-08T05:15:13.725Z,3.63
2022-08-08T05:18:02.569Z,3.13
2022-08-08T05:20:53.587Z,3.00
2022-08-08T05:23:46.124Z,3.10
2022-08-08T05:26:39.532Z,3.15
2022-08-08T05:29:29.352Z,2.53
2022-08-08T05:32:24.808Z,2.33
2022-08-08T05:35:23.394Z,2.67
2022-08-08T05:38:30.836Z,2.63
2022-08-08T05:41:28.211Z,2.60
2022-08-08T05:44:22.216Z,2.55
2022-08-08T05:47:22.110Z,2.38
2022-08-08T05:50:11.715Z,3.35
2022-08-08T05:53:54.641Z,2.70
2022-08-08T05:56:16.236Z,2.50
2022-08-08T05:59:12.678Z,2.47
2022-08-08T06:02:05.043Z,3.05
2022-08-08T06:05:00.245Z,2.92
2022-08-08T06:07:50.567Z,2.15
2022-08-08T06:10:41.188Z,2.72
2022-08-08T06:13:36.134Z,2.67
2022-08-08T06:16:33.536Z,2.58
2022-08-08T06:19:28.279Z,3.03
2022-08-08T06:22:37.526Z,2.60
2022-08-08T06:26:43.328Z,2.70
2022-08-08T06:28:54.161Z,2.30
2022-08-08T06:32:09.231Z,2.80
2022-08-08T06:35:34.975Z,2.50
2022-08-08T06:38:14.668Z,2.50
2022-08-08T06:41:13.323Z,2.00
2022-08-08T06:44:05.692Z,2.22
2022-08-08T06:47:02.333Z,1.98
2022-08-08T06:49:55.931Z,1.95
2022-08-08T06:52:50.467Z,2.25
2022-08-08T06:55:41.836Z,1.95
2022-08-08T06:58:33.283Z,1.77
2022-08-08T07:02:28.038Z,1.80
2022-08-08T07:04:52.175Z,1.63
2022-08-08T07:08:01.028Z,2.00
2022-08-08T07:10:59.084Z,2.08
2022-08-08T07:14:01.084Z,1.90
2022-08-08T07:17:09.257Z,2.20
2022-08-08T07:20:05.943Z,1.70
2022-08-08T07:23:04.746Z,1.83
2022-08-08T07:25:57.466Z,1.83
2022-08-08T07:28:47.999Z,1.90
2022-08-08T07:31:38.614Z,2.53
2022-08-08T07:34:32.523Z,4.63
2022-08-08T07:37:42.466Z,1.50
2022-08-08T07:40:40.109Z,1.55
2022-08-08T07:43:37.222Z,2.00
2022-08-08T07:46:30.914Z,1.40
2022-08-08T07:49:30.341Z,1.50
2022-08-08T07:52:26.712Z,1.60
2022-08-08T07:55:29.055Z,1.40
2022-08-08T07:58:30.469Z,1.67
2022-08-08T08:01:27.180Z,1.65
2022-08-08T08:04:19.397Z,1.60
2022-08-08T08:07:12.640Z,1.85
2022-08-08T08:10:05.330Z,1.50
2022-08-08T08:12:56.729Z,1.20
2022-08-08T08:15:45.598Z,1.48
2022-08-08T08:18:56.302Z,1.30
2022-08-08T08:21:57.770Z,1.20
2022-08-08T08:25:08.354Z,1.20
2022-08-08T08:27:59.927Z,1.13
2022-08-08T08:30:52.106Z,1.10
2022-08-08T08:33:43.587Z,1.10
2022-08-08T08:36:32.831Z,1.20
2022-08-08T08:39:23.716Z,1.20
2022-08-08T08:42:19.266Z,1.45
2022-08-08T08:45:23.246Z,1.20
2022-08-08T08:48:21.093Z,1.58
2022-08-08T08:51:14.432Z,1.30
2022-08-08T08:54:04.996Z,1.42
2022-08-08T08:56:58.124Z,1.27
2022-08-08T08:59:58.989Z,1.20
2022-08-08T09:02:54.518Z,1.33
2022-08-08T09:05:53.985Z,1.20
2022-08-08T09:08:52.003Z,1.27
2022-08-08T09:11:47.466Z,1.10
2022-08-08T09:14:57.020Z,1.20
2022-08-08T09:17:55.994Z,1.05
2022-08-08T09:22:00.536Z,1.00
2022-08-08T09:23:59.723Z,1.02
2022-08-08T09:26:58.210Z,1.00
2022-08-08T09:29:55.604Z,1.00
2022-08-08T09:32:50.476Z,1.10
2022-08-08T09:35:57.343Z,1.15
2022-08-08T09:38:55.198Z,1.30
2022-08-08T09:42:20.564Z,1.13
2022-08-08T09:45:15.817Z,1.02
2022-08-08T09:48:28.981Z,0.95
2022-08-08T09:51:41.573Z,0.90
2022-08-08T09:54:45.078Z,1.10
2022-08-08T09:57:46.000Z,1.10
2022-08-08T10:00:49.611Z,1.13
2022-08-08T10:03:43.395Z,1.00
2022-08-08T10:06:35.761Z,1.40
2022-08-08T10:09:58.928Z,1.10
2022-08-08T10:12:53.183Z,1.33
2022-08-08T10:16:00.729Z,1.15
2022-08-08T10:18:51.704Z,1.20
2022-08-08T10:21:51.247Z,1.20
2022-08-08T10:24:47.688Z,1.23
2022-08-08T10:27:43.232Z,1.10
2022-08-08T10:31:00.135Z,1.60
2022-08-08T10:34:18.680Z,1.20
2022-08-08T10:36:52.162Z,1.20
2022-08-08T10:39:54.822Z,0.93
2022-08-08T10:42:44.938Z,1.23
2022-08-08T10:45:57.111Z,1.20
2022-08-08T10:48:57.820Z,1.33
2022-08-08T10:51:51.508Z,1.17
2022-08-08T10:54:41.451Z,1.40
2022-08-08T10:57:41.481Z,0.90
2022-08-08T11:00:53.281Z,0.88
2022-08-08T11:04:02.083Z,0.95
2022-08-08T11:07:00.834Z,1.00
2022-08-08T11:09:50.189Z,0.90
2022-08-08T11:12:48.271Z,1.30
2022-08-08T11:15:52.400Z,1.30
2022-08-08T11:18:53.088Z,1.17
2022-08-08T11:21:54.290Z,0.85
2022-08-08T11:24:47.853Z,1.13
2022-08-08T11:27:38.748Z,1.30
2022-08-08T11:30:34.807Z,0.95
2022-08-08T11:33:51.576Z,0.98
2022-08-08T11:36:42.079Z,0.90
2022-08-08T11:39:36.779Z,1.13
2022-08-08T11:42:31.051Z,1.00
2022-08-08T11:45:23.646Z,1.08
2022-08-08T11:48:12.729Z,1.10
2022-08-08T11:51:30.582Z,1.05
2022-08-08T11:54:33.502Z,1.20
2022-08-08T11:57:27.565Z,0.95
2022-08-08T12:00:18.354Z,1.17
2022-08-08T12:03:16.983Z,0.90
2022-08-08T12:06:13.907Z,1.00
2022-08-08T12:09:07.903Z,0.90
2022-08-08T12:11:58.008Z,0.80
2022-08-08T12:14:54.613Z,1.17
2022-08-08T12:17:51.082Z,2.00
2022-08-08T12:20:41.754Z,1.13
2022-08-08T12:23:42.634Z,1.48
2022-08-08T12:26:41.786Z,1.10
2022-08-08T12:29:42.076Z,1.00
2022-08-08T12:32:42.643Z,1.38
2022-08-08T12:35:41.204Z,1.40
2022-08-08T12:38:48.857Z,1.30
2022-08-08T12:42:01.289Z,1.08
2022-08-08T12:44:50.381Z,1.27
2022-08-08T12:48:04.361Z,1.20
2022-08-08T12:50:49.453Z,1.10
2022-08-08T12:53:45.557Z,0.95
2022-08-08T12:56:36.845Z,1.00
2022-08-08T12:59:44.501Z,1.10
2022-08-08T13:02:37.985Z,1.20
2022-08-08T13:06:04.228Z,1.35
2022-08-08T13:08:53.618Z,1.25
2022-08-08T13:12:28.181Z,1.30
2022-08-08T13:15:06.445Z,1.13
2022-08-08T13:18:11.117Z,1.02
2022-08-08T13:21:00.681Z,1.67
2022-08-08T13:23:51.764Z,1.30
2022-08-08T13:26:44.748Z,1.10
2022-08-08T13:29:40.536Z,1.10
2022-08-08T13:32:35.429Z,1.08
2022-08-08T13:35:29.538Z,1.10
2022-08-08T13:38:28.235Z,1.10
2022-08-08T13:41:18.037Z,1.20
2022-08-08T13:44:10.988Z,1.27
2022-08-08T13:47:02.278Z,1.40
2022-08-08T13:50:36.385Z,1.35
2022-08-08T13:53:22.589Z,1.20
2022-08-08T13:56:13.491Z,1.10
2022-08-08T13:59:03.724Z,1.30
2022-08-08T14:02:01.465Z,1.10
2022-08-08T14:05:04.741Z,1.05
2022-08-08T14:08:01.782Z,1.00
2022-08-08T14:11:07.390Z,1.27
2022-08-08T14:14:05.988Z,1.17
2022-08-08T14:17:00.520Z,1.00
2022-08-08T14:19:57.107Z,1.17
2022-08-08T14:22:52.004Z,1.08
2022-08-08T14:25:47.230Z,1.02
2022-08-08T14:28:54.203Z,1.23
2022-08-08T14:32:09.344Z,1.27
2022-08-08T14:35:04.842Z,1.20
2022-08-08T14:37:59.660Z,1.10
2022-08-08T14:40:51.578Z,1.30
2022-08-08T14:44:10.068Z,1.20
2022-08-08T14:47:01.421Z,1.10
2022-08-08T14:50:06.164Z,1.50
2022-08-08T14:53:00.903Z,1.38
2022-08-08T14:55:52.696Z,1.30
2022-08-08T14:58:50.943Z,1.17
2022-08-08T15:01:41.218Z,1.40
2022-08-08T15:04:31.561Z,1.05
2022-08-08T15:07:24.426Z,1.13
2022-08-08T15:10:28.866Z,1.17
2022-08-08T15:13:17.817Z,1.25
2022-08-08T15:16:12.146Z,1.15
2022-08-08T15:19:04.821Z,1.20
2022-08-08T15:21:54.938Z,1.30
2022-08-08T15:24:43.454Z,1.20
2022-08-08T15:28:04.345Z,1.40
2022-08-08T15:30:48.695Z,1.20
2022-08-08T15:34:00.136Z,1.60
2022-08-08T15:36:47.941Z,1.10
2022-08-08T15:39:39.836Z,1.10
2022-08-08T15:42:33.072Z,1.13
2022-08-08T15:45:22.931Z,1.05
2022-08-08T15:48:16.259Z,1.20
2022-08-08T15:51:07.176Z,1.30
2022-08-08T15:53:55.902Z,1.10
2022-08-08T15:56:46.453Z,1.10
2022-08-08T16:00:25.372Z,1.10
2022-08-08T16:02:50.292Z,1.30
2022-08-08T16:05:53.512Z,1.20
2022-08-08T16:09:02.512Z,1.05
2022-08-08T16:13:09.180Z,1.30
2022-08-08T16:15:08.438Z,1.52
2022-08-08T16:18:11.766Z,1.80
2022-08-08T16:21:01.435Z,1.30
2022-08-08T16:23:55.389Z,1.25
2022-08-08T16:26:45.009Z,1.17
2022-08-08T16:30:08.754Z,1.63
2022-08-08T16:32:48.419Z,1.33
2022-08-08T16:35:38.267Z,1.20
2022-08-08T16:38:31.767Z,1.20
2022-08-08T16:41:22.563Z,1.40
2022-08-08T16:44:12.850Z,1.10
2022-08-08T16:47:16.467Z,1.30
2022-08-08T16:50:11.131Z,1.30
2022-08-08T16:55:06.600Z,1.30
2022-08-08T16:56:14.311Z,1.40
2022-08-08T16:59:04.141Z,1.20
2022-08-08T17:01:53.007Z,1.60
2022-08-08T17:04:43.050Z,1.42
2022-08-08T17:07:37.911Z,1.48
2022-08-08T17:10:29.335Z,1.02
2022-08-08T17:13:18.016Z,1.50
2022-08-08T17:16:07.341Z,1.55
2022-08-08T17:19:04.151Z,1.30
2022-08-08T17:21:54.488Z,1.63
2022-08-08T17:24:43.699Z,1.30
2022-08-08T17:27:47.449Z,1.30
2022-08-08T17:30:36.650Z,1.45
2022-08-08T17:34:36.437Z,1.40
2022-08-08T17:36:35.422Z,1.23
2022-08-08T17:40:04.944Z,1.10
2022-08-08T17:42:35.450Z,1.50
2022-08-08T17:45:24.531Z,1.40
2022-08-08T17:48:14.760Z,1.17
2022-08-08T17:51:18.360Z,1.48
2022-08-08T17:54:13.719Z,1.48
2022-08-08T17:57:12.087Z,1.20
2022-08-08T18:00:03.282Z,1.48
2022-08-08T18:03:07.934Z,1.40
2022-08-08T18:06:00.846Z,1.40
2022-08-08T18:08:51.260Z,1.50
2022-08-08T18:11:44.989Z,1.50
2022-08-08T18:14:41.515Z,1.90
2022-08-08T18:18:09.855Z,1.48
2022-08-08T18:20:54.414Z,1.25
2022-08-08T18:23:52.767Z,1.67
2022-08-08T18:26:46.594Z,1.70
2022-08-08T18:29:45.101Z,1.90
2022-08-08T18:32:37.105Z,1.65
2022-08-08T18:35:41.895Z,1.75
2022-08-08T18:38:37.875Z,1.55
2022-08-08T18:41:51.492Z,1.70
2022-08-08T18:44:36.326Z,1.40
2022-08-08T18:47:27.676Z,1.52
2022-08-08T18:50:16.544Z,1.80
2022-08-08T18:53:09.459Z,1.80
2022-08-08T18:56:00.433Z,1.67
2022-08-08T18:58:49.665Z,1.92
2022-08-08T19:02:25.391Z,2.35
2022-08-08T19:04:49.674Z,2.03
2022-08-08T19:07:40.349Z,2.10
2022-08-08T19:10:41.646Z,2.33
2022-08-08T19:13:47.303Z,2.20
2022-08-08T19:16:41.991Z,2.15
2022-08-08T19:19:31.523Z,2.30
2022-08-08T19:22:22.077Z,2.25
2022-08-08T19:26:01.341Z,2.20
2022-08-08T19:28:20.506Z,2.00
2022-08-08T19:31:10.001Z,2.33
2022-08-08T19:34:04.880Z,2.25
2022-08-08T19:37:16.384Z,2.40
2022-08-08T19:40:08.830Z,2.30
2022-08-08T19:43:03.391Z,1.90
2022-08-08T19:46:00.926Z,2.45
2022-08-08T19:48:49.937Z,2.17
2022-08-08T19:51:43.274Z,2.17
2022-08-08T19:54:32.399Z,2.40
2022-08-08T19:57:22.398Z,2.33
2022-08-08T20:00:29.237Z,2.40
2022-08-08T20:04:02.126Z,2.38
2022-08-08T20:06:29.252Z,2.30
2022-08-08T20:09:22.712Z,2.45
2022-08-08T20:12:14.077Z,2.20
2022-08-08T20:15:15.110Z,2.30
2022-08-08T20:18:15.407Z,2.22
2022-08-08T20:21:04.768Z,2.40
2022-08-08T20:23:58.034Z,2.17
2022-08-08T20:26:49.448Z,2.03
2022-08-08T20:29:55.424Z,2.60
2022-08-08T20:32:48.794Z,2.50
2022-08-08T20:35:56.850Z,2.33
2022-08-08T20:38:46.366Z,2.15
2022-08-08T20:41:39.159Z,2.58
2022-08-08T20:44:30.044Z,2.13
2022-08-08T20:47:23.724Z,2.45
2022-08-08T20:50:14.631Z,2.22
2022-08-08T20:53:03.420Z,2.25
2022-08-08T20:55:59.930Z,2.20
2022-08-08T20:58:49.558Z,2.50
2022-08-08T21:02:06.488Z,2.50
2022-08-08T21:04:47.709Z,2.50
2022-08-08T21:08:07.718Z,2.22
2022-08-08T21:10:52.419Z,2.00
2022-08-08T21:13:43.616Z,2.35
2022-08-08T21:16:32.149Z,2.50
2022-08-08T21:19:21.197Z,2.40
2022-08-08T21:22:12.694Z,2.47
2022-08-08T21:25:02.975Z,2.80
2022-08-08T21:28:09.742Z,2.55
2022-08-08T21:31:06.095Z,2.63
2022-08-08T21:34:10.471Z,2.50
2022-08-08T21:37:11.303Z,2.70
2022-08-08T21:40:07.797Z,3.17
2022-08-08T21:42:56.784Z,2.50
2022-08-08T21:48:08.620Z,2.40
2022-08-08T21:48:56.103Z,2.83
2022-08-08T21:54:18.662Z,2.63
2022-08-08T21:55:02.544Z,2.65
2022-08-08T21:58:05.735Z,2.75
2022-08-08T22:01:04.266Z,3.05
2022-08-08T22:03:53.353Z,2.35
2022-08-08T22:06:41.845Z,2.70
2022-08-08T22:09:37.215Z,2.42
2022-08-08T22:12:26.970Z,2.00
2022-08-08T22:15:16.906Z,2.40
2022-08-08T22:18:06.234Z,2.38
2022-08-08T22:21:14.584Z,2.33
2022-08-08T22:24:05.756Z,2.28
2022-08-08T22:27:02.607Z,2.30
2022-08-08T22:29:58.718Z,2.10
2022-08-08T22:32:51.690Z,2.40
2022-08-08T22:36:04.656Z,2.40
2022-08-08T22:38:50.997Z,2.17
2022-08-08T22:41:39.565Z,2.17
2022-08-08T22:44:28.377Z,1.88
2022-08-08T22:47:21.198Z,2.30
2022-08-08T22:50:26.836Z,2.47
2022-08-08T22:54:32.637Z,2.10
2022-08-08T22:56:24.726Z,2.28
2022-08-08T22:59:18.625Z,2.38
2022-08-08T23:02:12.759Z,2.08
2022-08-08T23:05:04.670Z,2.38
2022-08-08T23:07:57.822Z,2.25
2022-08-08T23:10:52.936Z,2.08
2022-08-08T23:13:53.641Z,2.38
2022-08-08T23:16:54.904Z,2.67
2022-08-08T23:19:48.875Z,2.30
2022-08-08T23:22:43.062Z,2.20
2022-08-08T23:25:45.091Z,2.08
2022-08-08T23:28:37.203Z,2.45
2022-08-08T23:31:25.739Z,2.10
2022-08-08T23:34:17.596Z,2.55
2022-08-08T23:37:07.754Z,2.40
2022-08-08T23:40:00.401Z,2.22
2022-08-08T23:42:51.393Z,2.20
2022-08-08T23:49:01.630Z,2.10
2022-08-08T23:49:05.981Z,2.40
2022-08-08T23:52:06.750Z,2.60
2022-08-08T23:55:07.596Z,2.20
2022-08-08T23:58:04.668Z,2.35
